sensor_id;sensor_type;location;lat;lon;timestamp;P1;durP1;ratioP1;P2;durP2;ratioP2
27383;SDS011;14851;51.166;4.760;2023-02-28T00:01:06;8.93;;;6.13;;
27383;SDS011;14851;51.166;4.760;2023-02-28T00:03:32;11.38;;;6.50;;
27383;SDS011;14851;51.166;4.760;2023-02-28T00:06:01;9.95;;;6.10;;
27383;SDS011;14851;51.166;4.760;2023-02-28T00:08:31;9.00;;;6.65;;
27383;SDS011;14851;51.166;4.760;2023-02-28T00:11:00;9.95;;;6.88;;
27383;SDS011;14851;51.166;4.760;2023-02-28T00:13:28;11.60;;;6.75;;
27383;SDS011;14851;51.166;4.760;2023-02-28T00:16:04;10.85;;;6.47;;
27383;SDS011;14851;51.166;4.760;2023-02-28T00:18:33;11.93;;;6.80;;
27383;SDS011;14851;51.166;4.760;2023-02-28T00:20:59;13.00;;;6.80;;
27383;SDS011;14851;51.166;4.760;2023-02-28T00:23:25;10.52;;;6.40;;
27383;SDS011;14851;51.166;4.760;2023-02-28T00:25:53;9.98;;;6.80;;
27383;SDS011;14851;51.166;4.760;2023-02-28T00:28:22;9.57;;;5.97;;
27383;SDS011;14851;51.166;4.760;2023-02-28T00:30:48;11.98;;;6.60;;
27383;SDS011;14851;51.166;4.760;2023-02-28T00:33:16;8.43;;;6.90;;
27383;SDS011;14851;51.166;4.760;2023-02-28T00:35:42;10.50;;;6.95;;
27383;SDS011;14851;51.166;4.760;2023-02-28T00:38:11;8.85;;;6.63;;
27383;SDS011;14851;51.166;4.760;2023-02-28T00:40:38;10.55;;;6.68;;
27383;SDS011;14851;51.166;4.760;2023-02-28T00:43:04;8.80;;;6.32;;
27383;SDS011;14851;51.166;4.760;2023-02-28T00:45:30;9.40;;;6.38;;
27383;SDS011;14851;51.166;4.760;2023-02-28T00:47:56;10.70;;;6.50;;
27383;SDS011;14851;51.166;4.760;2023-02-28T00:50:22;10.65;;;6.53;;
27383;SDS011;14851;51.166;4.760;2023-02-28T00:52:48;9.43;;;6.88;;
27383;SDS011;14851;51.166;4.760;2023-02-28T00:55:14;10.65;;;6.80;;
27383;SDS011;14851;51.166;4.760;2023-02-28T00:57:43;11.75;;;6.85;;
27383;SDS011;14851;51.166;4.760;2023-02-28T01:00:09;10.68;;;7.07;;
27383;SDS011;14851;51.166;4.760;2023-02-28T01:02:36;9.85;;;7.43;;
27383;SDS011;14851;51.166;4.760;2023-02-28T01:05:02;10.75;;;6.80;;
27383;SDS011;14851;51.166;4.760;2023-02-28T01:07:29;11.38;;;6.78;;
27383;SDS011;14851;51.166;4.760;2023-02-28T01:09:54;10.98;;;6.68;;
27383;SDS011;14851;51.166;4.760;2023-02-28T01:12:20;10.55;;;7.43;;
27383;SDS011;14851;51.166;4.760;2023-02-28T01:14:49;13.15;;;8.23;;
27383;SDS011;14851;51.166;4.760;2023-02-28T01:17:15;9.27;;;6.88;;
27383;SDS011;14851;51.166;4.760;2023-02-28T01:19:41;14.68;;;8.02;;
27383;SDS011;14851;51.166;4.760;2023-02-28T01:22:09;17.10;;;7.88;;
27383;SDS011;14851;51.166;4.760;2023-02-28T01:24:35;9.15;;;7.15;;
27383;SDS011;14851;51.166;4.760;2023-02-28T01:27:02;9.52;;;7.35;;
27383;SDS011;14851;51.166;4.760;2023-02-28T01:29:28;12.75;;;7.82;;
27383;SDS011;14851;51.166;4.760;2023-02-28T01:31:54;12.77;;;8.07;;
27383;SDS011;14851;51.166;4.760;2023-02-28T01:34:22;11.05;;;7.50;;
27383;SDS011;14851;51.166;4.760;2023-02-28T01:36:48;11.88;;;8.90;;
27383;SDS011;14851;51.166;4.760;2023-02-28T01:39:13;10.10;;;7.85;;
27383;SDS011;14851;51.166;4.760;2023-02-28T01:41:39;11.13;;;7.97;;
27383;SDS011;14851;51.166;4.760;2023-02-28T01:44:53;13.25;;;8.35;;
27383;SDS011;14851;51.166;4.760;2023-02-28T01:47:12;10.82;;;8.10;;
27383;SDS011;14851;51.166;4.760;2023-02-28T01:49:38;8.88;;;7.97;;
27383;SDS011;14851;51.166;4.760;2023-02-28T01:52:04;14.30;;;9.27;;
27383;SDS011;14851;51.166;4.760;2023-02-28T01:54:31;10.77;;;8.30;;
27383;SDS011;14851;51.166;4.760;2023-02-28T01:57:07;13.68;;;8.32;;
27383;SDS011;14851;51.166;4.760;2023-02-28T01:59:42;13.00;;;8.90;;
27383;SDS011;14851;51.166;4.760;2023-02-28T02:02:16;14.55;;;7.50;;
27383;SDS011;14851;51.166;4.760;2023-02-28T02:05:07;11.52;;;9.30;;
27383;SDS011;14851;51.166;4.760;2023-02-28T02:07:38;12.68;;;9.13;;
27383;SDS011;14851;51.166;4.760;2023-02-28T02:10:24;11.73;;;8.50;;
27383;SDS011;14851;51.166;4.760;2023-02-28T02:18:21;10.98;;;8.45;;
27383;SDS011;14851;51.166;4.760;2023-02-28T02:20:59;11.68;;;8.13;;
27383;SDS011;14851;51.166;4.760;2023-02-28T02:32:23;12.15;;;8.40;;
27383;SDS011;14851;51.166;4.760;2023-02-28T02:35:23;13.00;;;8.90;;
27383;SDS011;14851;51.166;4.760;2023-02-28T02:38:04;11.05;;;7.75;;
27383;SDS011;14851;51.166;4.760;2023-02-28T02:40:50;13.40;;;7.93;;
27383;SDS011;14851;51.166;4.760;2023-02-28T02:46:10;13.02;;;8.60;;
27383;SDS011;14851;51.166;4.760;2023-02-28T02:48:44;12.27;;;8.23;;
27383;SDS011;14851;51.166;4.760;2023-02-28T02:51:16;11.05;;;8.27;;
27383;SDS011;14851;51.166;4.760;2023-02-28T02:53:48;10.15;;;8.52;;
27383;SDS011;14851;51.166;4.760;2023-02-28T02:56:19;12.10;;;8.43;;
27383;SDS011;14851;51.166;4.760;2023-02-28T02:58:49;10.75;;;7.85;;
27383;SDS011;14851;51.166;4.760;2023-02-28T03:01:21;12.65;;;9.40;;
27383;SDS011;14851;51.166;4.760;2023-02-28T03:03:57;11.57;;;8.48;;
27383;SDS011;14851;51.166;4.760;2023-02-28T03:06:27;13.38;;;8.43;;
27383;SDS011;14851;51.166;4.760;2023-02-28T03:08:53;13.27;;;8.68;;
27383;SDS011;14851;51.166;4.760;2023-02-28T03:11:24;12.30;;;8.82;;
27383;SDS011;14851;51.166;4.760;2023-02-28T03:16:59;9.57;;;8.30;;
27383;SDS011;14851;51.166;4.760;2023-02-28T03:28:32;10.85;;;8.35;;
27383;SDS011;14851;51.166;4.760;2023-02-28T03:33:43;13.88;;;9.20;;
27383;SDS011;14851;51.166;4.760;2023-02-28T03:36:20;11.10;;;8.07;;
27383;SDS011;14851;51.166;4.760;2023-02-28T03:38:58;10.85;;;8.82;;
27383;SDS011;14851;51.166;4.760;2023-02-28T03:41:38;11.55;;;8.90;;
27383;SDS011;14851;51.166;4.760;2023-02-28T03:46:42;13.18;;;9.55;;
27383;SDS011;14851;51.166;4.760;2023-02-28T03:49:23;12.85;;;9.07;;
27383;SDS011;14851;51.166;4.760;2023-02-28T03:51:55;13.15;;;9.00;;
27383;SDS011;14851;51.166;4.760;2023-02-28T03:54:25;10.70;;;8.30;;
27383;SDS011;14851;51.166;4.760;2023-02-28T03:56:59;12.15;;;8.63;;
27383;SDS011;14851;51.166;4.760;2023-02-28T03:59:47;11.43;;;8.15;;
27383;SDS011;14851;51.166;4.760;2023-02-28T04:02:20;12.93;;;9.13;;
27383;SDS011;14851;51.166;4.760;2023-02-28T04:04:46;13.68;;;9.10;;
27383;SDS011;14851;51.166;4.760;2023-02-28T04:07:13;11.68;;;9.07;;
27383;SDS011;14851;51.166;4.760;2023-02-28T04:09:40;11.93;;;9.20;;
27383;SDS011;14851;51.166;4.760;2023-02-28T04:12:06;11.90;;;9.30;;
27383;SDS011;14851;51.166;4.760;2023-02-28T04:14:32;11.73;;;9.25;;
27383;SDS011;14851;51.166;4.760;2023-02-28T04:16:58;13.32;;;8.75;;
27383;SDS011;14851;51.166;4.760;2023-02-28T04:19:27;11.48;;;9.20;;
27383;SDS011;14851;51.166;4.760;2023-02-28T04:21:53;12.77;;;8.90;;
27383;SDS011;14851;51.166;4.760;2023-02-28T04:24:21;13.18;;;8.90;;
27383;SDS011;14851;51.166;4.760;2023-02-28T04:26:53;12.60;;;8.98;;
27383;SDS011;14851;51.166;4.760;2023-02-28T04:29:25;12.65;;;8.63;;
27383;SDS011;14851;51.166;4.760;2023-02-28T04:31:56;12.77;;;9.27;;
27383;SDS011;14851;51.166;4.760;2023-02-28T04:34:28;14.15;;;9.40;;
27383;SDS011;14851;51.166;4.760;2023-02-28T04:36:56;14.20;;;9.52;;
27383;SDS011;14851;51.166;4.760;2023-02-28T04:39:22;13.52;;;8.70;;
27383;SDS011;14851;51.166;4.760;2023-02-28T04:41:49;12.05;;;8.95;;
27383;SDS011;14851;51.166;4.760;2023-02-28T04:44:15;13.13;;;8.70;;
27383;SDS011;14851;51.166;4.760;2023-02-28T04:46:41;12.05;;;8.25;;
27383;SDS011;14851;51.166;4.760;2023-02-28T04:49:08;13.70;;;8.38;;
27383;SDS011;14851;51.166;4.760;2023-02-28T04:51:36;15.40;;;9.10;;
27383;SDS011;14851;51.166;4.760;2023-02-28T04:54:02;11.88;;;8.48;;
27383;SDS011;14851;51.166;4.760;2023-02-28T04:56:28;10.40;;;8.20;;
27383;SDS011;14851;51.166;4.760;2023-02-28T04:58:54;11.70;;;7.80;;
27383;SDS011;14851;51.166;4.760;2023-02-28T05:01:27;9.98;;;7.95;;
27383;SDS011;14851;51.166;4.760;2023-02-28T05:03:55;11.98;;;8.25;;
27383;SDS011;14851;51.166;4.760;2023-02-28T05:06:25;11.80;;;8.38;;
27383;SDS011;14851;51.166;4.760;2023-02-28T05:08:53;13.70;;;8.15;;
27383;SDS011;14851;51.166;4.760;2023-02-28T05:11:20;16.55;;;8.18;;
27383;SDS011;14851;51.166;4.760;2023-02-28T05:13:55;12.77;;;8.18;;
27383;SDS011;14851;51.166;4.760;2023-02-28T05:16:22;11.70;;;8.05;;
27383;SDS011;14851;51.166;4.760;2023-02-28T05:18:50;10.98;;;7.13;;
27383;SDS011;14851;51.166;4.760;2023-02-28T05:23:52;10.82;;;7.97;;
27383;SDS011;14851;51.166;4.760;2023-02-28T05:26:21;11.90;;;8.30;;
27383;SDS011;14851;51.166;4.760;2023-02-28T05:28:47;10.95;;;7.47;;
27383;SDS011;14851;51.166;4.760;2023-02-28T05:31:13;12.80;;;8.05;;
27383;SDS011;14851;51.166;4.760;2023-02-28T05:33:40;9.55;;;8.05;;
27383;SDS011;14851;51.166;4.760;2023-02-28T05:36:06;11.10;;;7.90;;
27383;SDS011;14851;51.166;4.760;2023-02-28T05:38:32;11.13;;;7.70;;
27383;SDS011;14851;51.166;4.760;2023-02-28T05:40:58;9.50;;;7.00;;
27383;SDS011;14851;51.166;4.760;2023-02-28T05:43:29;11.52;;;7.95;;
27383;SDS011;14851;51.166;4.760;2023-02-28T05:45:56;12.65;;;7.85;;
27383;SDS011;14851;51.166;4.760;2023-02-28T05:48:21;9.07;;;7.25;;
27383;SDS011;14851;51.166;4.760;2023-02-28T05:50:51;10.82;;;7.70;;
27383;SDS011;14851;51.166;4.760;2023-02-28T05:53:20;14.38;;;8.00;;
27383;SDS011;14851;51.166;4.760;2023-02-28T05:55:46;13.23;;;7.80;;
27383;SDS011;14851;51.166;4.760;2023-02-28T05:58:12;12.57;;;8.93;;
27383;SDS011;14851;51.166;4.760;2023-02-28T06:00:40;10.75;;;7.25;;
27383;SDS011;14851;51.166;4.760;2023-02-28T06:03:08;11.27;;;7.43;;
27383;SDS011;14851;51.166;4.760;2023-02-28T06:05:36;13.70;;;7.47;;
27383;SDS011;14851;51.166;4.760;2023-02-28T06:08:06;12.35;;;7.82;;
27383;SDS011;14851;51.166;4.760;2023-02-28T06:10:35;14.70;;;7.57;;
27383;SDS011;14851;51.166;4.760;2023-02-28T06:13:02;11.70;;;8.15;;
27383;SDS011;14851;51.166;4.760;2023-02-28T06:15:31;13.18;;;7.93;;
27383;SDS011;14851;51.166;4.760;2023-02-28T06:17:58;11.25;;;8.18;;
27383;SDS011;14851;51.166;4.760;2023-02-28T06:20:25;11.32;;;7.82;;
27383;SDS011;14851;51.166;4.760;2023-02-28T06:22:54;10.23;;;7.45;;
27383;SDS011;14851;51.166;4.760;2023-02-28T06:25:26;11.57;;;7.75;;
27383;SDS011;14851;51.166;4.760;2023-02-28T06:27:53;11.05;;;8.02;;
27383;SDS011;14851;51.166;4.760;2023-02-28T06:30:20;13.43;;;7.88;;
27383;SDS011;14851;51.166;4.760;2023-02-28T06:32:52;13.85;;;7.65;;
27383;SDS011;14851;51.166;4.760;2023-02-28T06:35:21;13.27;;;8.10;;
27383;SDS011;14851;51.166;4.760;2023-02-28T06:37:48;11.80;;;8.00;;
27383;SDS011;14851;51.166;4.760;2023-02-28T06:40:14;11.68;;;8.48;;
27383;SDS011;14851;51.166;4.760;2023-02-28T06:42:40;11.50;;;7.57;;
27383;SDS011;14851;51.166;4.760;2023-02-28T06:45:07;14.93;;;8.68;;
27383;SDS011;14851;51.166;4.760;2023-02-28T06:47:34;12.70;;;8.35;;
27383;SDS011;14851;51.166;4.760;2023-02-28T06:50:02;11.93;;;8.75;;
27383;SDS011;14851;51.166;4.760;2023-02-28T06:52:32;9.82;;;8.13;;
27383;SDS011;14851;51.166;4.760;2023-02-28T06:54:58;13.02;;;8.80;;
27383;SDS011;14851;51.166;4.760;2023-02-28T06:57:30;14.90;;;7.68;;
27383;SDS011;14851;51.166;4.760;2023-02-28T06:59:58;11.85;;;7.65;;
27383;SDS011;14851;51.166;4.760;2023-02-28T07:02:25;11.25;;;8.30;;
27383;SDS011;14851;51.166;4.760;2023-02-28T07:04:54;11.85;;;8.00;;
27383;SDS011;14851;51.166;4.760;2023-02-28T07:07:20;11.18;;;7.38;;
27383;SDS011;14851;51.166;4.760;2023-02-28T07:09:46;15.27;;;8.15;;
27383;SDS011;14851;51.166;4.760;2023-02-28T07:12:14;10.57;;;7.40;;
27383;SDS011;14851;51.166;4.760;2023-02-28T07:14:40;10.27;;;7.47;;
27383;SDS011;14851;51.166;4.760;2023-02-28T07:17:07;10.85;;;7.70;;
27383;SDS011;14851;51.166;4.760;2023-02-28T07:19:37;10.55;;;7.35;;
27383;SDS011;14851;51.166;4.760;2023-02-28T07:22:04;11.38;;;7.70;;
27383;SDS011;14851;51.166;4.760;2023-02-28T07:24:30;11.40;;;7.13;;
27383;SDS011;14851;51.166;4.760;2023-02-28T07:26:56;15.32;;;8.00;;
27383;SDS011;14851;51.166;4.760;2023-02-28T07:29:22;9.27;;;7.43;;
27383;SDS011;14851;51.166;4.760;2023-02-28T07:34:19;9.57;;;6.53;;
27383;SDS011;14851;51.166;4.760;2023-02-28T07:36:45;12.73;;;7.13;;
27383;SDS011;14851;51.166;4.760;2023-02-28T07:39:12;11.80;;;6.28;;
27383;SDS011;14851;51.166;4.760;2023-02-28T07:41:40;11.23;;;7.05;;
27383;SDS011;14851;51.166;4.760;2023-02-28T07:44:09;9.57;;;7.25;;
27383;SDS011;14851;51.166;4.760;2023-02-28T07:46:36;10.80;;;7.25;;
27383;SDS011;14851;51.166;4.760;2023-02-28T07:49:02;9.13;;;6.82;;
27383;SDS011;14851;51.166;4.760;2023-02-28T07:51:29;7.63;;;5.90;;
27383;SDS011;14851;51.166;4.760;2023-02-28T07:53:55;11.18;;;6.32;;
27383;SDS011;14851;51.166;4.760;2023-02-28T07:56:24;11.88;;;6.70;;
27383;SDS011;14851;51.166;4.760;2023-02-28T07:58:52;10.80;;;6.63;;
27383;SDS011;14851;51.166;4.760;2023-02-28T08:01:18;8.75;;;6.25;;
27383;SDS011;14851;51.166;4.760;2023-02-28T08:03:44;10.23;;;5.28;;
27383;SDS011;14851;51.166;4.760;2023-02-28T08:06:16;8.55;;;5.57;;
27383;SDS011;14851;51.166;4.760;2023-02-28T08:08:52;9.35;;;5.93;;
27383;SDS011;14851;51.166;4.760;2023-02-28T08:11:22;8.85;;;5.57;;
27383;SDS011;14851;51.166;4.760;2023-02-28T08:13:50;6.45;;;4.50;;
27383;SDS011;14851;51.166;4.760;2023-02-28T08:16:18;6.65;;;4.65;;
27383;SDS011;14851;51.166;4.760;2023-02-28T08:18:56;7.50;;;4.82;;
27383;SDS011;14851;51.166;4.760;2023-02-28T08:21:24;9.38;;;4.70;;
27383;SDS011;14851;51.166;4.760;2023-02-28T08:23:51;6.43;;;4.25;;
27383;SDS011;14851;51.166;4.760;2023-02-28T08:26:17;5.40;;;3.55;;
27383;SDS011;14851;51.166;4.760;2023-02-28T08:28:44;5.53;;;4.10;;
27383;SDS011;14851;51.166;4.760;2023-02-28T08:31:15;6.60;;;4.28;;
27383;SDS011;14851;51.166;4.760;2023-02-28T08:33:42;8.80;;;4.38;;
27383;SDS011;14851;51.166;4.760;2023-02-28T08:36:11;6.35;;;3.75;;
27383;SDS011;14851;51.166;4.760;2023-02-28T08:38:38;6.50;;;4.65;;
27383;SDS011;14851;51.166;4.760;2023-02-28T08:41:05;7.88;;;4.10;;
27383;SDS011;14851;51.166;4.760;2023-02-28T08:43:35;5.65;;;3.25;;
27383;SDS011;14851;51.166;4.760;2023-02-28T08:46:01;8.38;;;3.95;;
27383;SDS011;14851;51.166;4.760;2023-02-28T08:48:29;6.88;;;3.70;;
27383;SDS011;14851;51.166;4.760;2023-02-28T08:50:59;6.28;;;3.38;;
27383;SDS011;14851;51.166;4.760;2023-02-28T08:53:30;6.97;;;3.15;;
27383;SDS011;14851;51.166;4.760;2023-02-28T08:56:01;4.93;;;2.88;;
27383;SDS011;14851;51.166;4.760;2023-02-28T08:58:31;6.00;;;2.83;;
27383;SDS011;14851;51.166;4.760;2023-02-28T09:00:57;3.05;;;2.20;;
27383;SDS011;14851;51.166;4.760;2023-02-28T09:03:23;3.60;;;2.22;;
27383;SDS011;14851;51.166;4.760;2023-02-28T09:05:53;4.57;;;2.30;;
27383;SDS011;14851;51.166;4.760;2023-02-28T09:08:21;4.70;;;2.85;;
27383;SDS011;14851;51.166;4.760;2023-02-28T09:10:47;6.32;;;2.53;;
27383;SDS011;14851;51.166;4.760;2023-02-28T09:13:13;5.18;;;2.42;;
27383;SDS011;14851;51.166;4.760;2023-02-28T09:15:39;6.85;;;2.30;;
27383;SDS011;14851;51.166;4.760;2023-02-28T09:18:05;2.80;;;1.70;;
27383;SDS011;14851;51.166;4.760;2023-02-28T09:20:31;3.00;;;1.92;;
27383;SDS011;14851;51.166;4.760;2023-02-28T09:22:57;2.35;;;1.67;;
27383;SDS011;14851;51.166;4.760;2023-02-28T09:25:25;3.13;;;2.00;;
27383;SDS011;14851;51.166;4.760;2023-02-28T09:27:53;4.25;;;1.70;;
27383;SDS011;14851;51.166;4.760;2023-02-28T09:30:19;3.15;;;2.05;;
27383;SDS011;14851;51.166;4.760;2023-02-28T09:32:45;3.92;;;1.85;;
27383;SDS011;14851;51.166;4.760;2023-02-28T09:35:17;2.80;;;1.90;;
27383;SDS011;14851;51.166;4.760;2023-02-28T09:37:44;2.55;;;1.75;;
27383;SDS011;14851;51.166;4.760;2023-02-28T09:40:10;3.55;;;1.70;;
27383;SDS011;14851;51.166;4.760;2023-02-28T09:42:37;3.85;;;1.70;;
27383;SDS011;14851;51.166;4.760;2023-02-28T09:45:14;3.13;;;2.00;;
27383;SDS011;14851;51.166;4.760;2023-02-28T09:48:03;2.92;;;1.98;;
27383;SDS011;14851;51.166;4.760;2023-02-28T09:51:00;1.92;;;1.35;;
27383;SDS011;14851;51.166;4.760;2023-02-28T09:53:32;4.10;;;1.88;;
27383;SDS011;14851;51.166;4.760;2023-02-28T09:56:10;2.42;;;1.65;;
27383;SDS011;14851;51.166;4.760;2023-02-28T10:09:57;3.17;;;1.80;;
27383;SDS011;14851;51.166;4.760;2023-02-28T10:12:27;3.95;;;1.40;;
27383;SDS011;14851;51.166;4.760;2023-02-28T10:14:54;2.20;;;1.55;;
27383;SDS011;14851;51.166;4.760;2023-02-28T10:17:25;1.88;;;1.10;;
27383;SDS011;14851;51.166;4.760;2023-02-28T10:22:26;2.00;;;1.20;;
27383;SDS011;14851;51.166;4.760;2023-02-28T10:24:54;2.17;;;1.15;;
27383;SDS011;14851;51.166;4.760;2023-02-28T10:27:34;3.10;;;1.40;;
27383;SDS011;14851;51.166;4.760;2023-02-28T10:30:00;2.17;;;1.25;;
27383;SDS011;14851;51.166;4.760;2023-02-28T10:32:30;4.35;;;1.52;;
27383;SDS011;14851;51.166;4.760;2023-02-28T10:37:43;2.03;;;1.58;;
27383;SDS011;14851;51.166;4.760;2023-02-28T10:40:33;1.95;;;1.10;;
27383;SDS011;14851;51.166;4.760;2023-02-28T10:43:34;2.35;;;1.30;;
27383;SDS011;14851;51.166;4.760;2023-02-28T10:46:03;2.50;;;1.35;;
27383;SDS011;14851;51.166;4.760;2023-02-28T10:48:41;3.63;;;1.48;;
27383;SDS011;14851;51.166;4.760;2023-02-28T10:51:14;1.45;;;1.05;;
27383;SDS011;14851;51.166;4.760;2023-02-28T10:53:51;4.63;;;1.50;;
27383;SDS011;14851;51.166;4.760;2023-02-28T10:56:19;2.33;;;1.27;;
27383;SDS011;14851;51.166;4.760;2023-02-28T11:06:48;1.90;;;1.13;;
27383;SDS011;14851;51.166;4.760;2023-02-28T11:12:16;2.85;;;1.23;;
27383;SDS011;14851;51.166;4.760;2023-02-28T11:14:53;1.67;;;1.15;;
27383;SDS011;14851;51.166;4.760;2023-02-28T11:17:29;2.08;;;0.93;;
27383;SDS011;14851;51.166;4.760;2023-02-28T11:20:06;2.63;;;1.70;;
27383;SDS011;14851;51.166;4.760;2023-02-28T11:22:43;1.98;;;1.13;;
27383;SDS011;14851;51.166;4.760;2023-02-28T11:25:16;3.78;;;1.60;;
27383;SDS011;14851;51.166;4.760;2023-02-28T11:27:54;2.80;;;1.63;;
27383;SDS011;14851;51.166;4.760;2023-02-28T11:30:26;3.45;;;1.85;;
27383;SDS011;14851;51.166;4.760;2023-02-28T11:32:56;3.58;;;1.27;;
27383;SDS011;14851;51.166;4.760;2023-02-28T11:35:24;3.97;;;1.70;;
27383;SDS011;14851;51.166;4.760;2023-02-28T11:38:04;4.20;;;1.70;;
27383;SDS011;14851;51.166;4.760;2023-02-28T11:52:02;2.90;;;1.55;;
27383;SDS011;14851;51.166;4.760;2023-02-28T12:31:35;4.40;;;1.77;;
27383;SDS011;14851;51.166;4.760;2023-02-28T12:34:03;8.75;;;1.90;;
27383;SDS011;14851;51.166;4.760;2023-02-28T12:36:37;5.35;;;1.65;;
27383;SDS011;14851;51.166;4.760;2023-02-28T12:39:10;3.67;;;1.70;;
27383;SDS011;14851;51.166;4.760;2023-02-28T12:41:51;2.95;;;1.90;;
27383;SDS011;14851;51.166;4.760;2023-02-28T12:44:21;2.08;;;1.42;;
27383;SDS011;14851;51.166;4.760;2023-02-28T12:47:03;2.60;;;1.40;;
27383;SDS011;14851;51.166;4.760;2023-02-28T12:49:39;6.45;;;2.00;;
27383;SDS011;14851;51.166;4.760;2023-02-28T12:52:13;7.10;;;1.90;;
27383;SDS011;14851;51.166;4.760;2023-02-28T12:58:01;3.20;;;1.63;;
27383;SDS011;14851;51.166;4.760;2023-02-28T13:00:15;4.10;;;1.98;;
27383;SDS011;14851;51.166;4.760;2023-02-28T13:10:52;3.60;;;1.98;;
27383;SDS011;14851;51.166;4.760;2023-02-28T13:13:25;3.30;;;1.83;;
27383;SDS011;14851;51.166;4.760;2023-02-28T13:18:32;5.32;;;2.00;;
27383;SDS011;14851;51.166;4.760;2023-02-28T13:21:23;5.75;;;2.30;;
27383;SDS011;14851;51.166;4.760;2023-02-28T13:23:59;2.55;;;1.65;;
27383;SDS011;14851;51.166;4.760;2023-02-28T13:31:25;2.67;;;1.98;;
27383;SDS011;14851;51.166;4.760;2023-02-28T13:36:30;3.63;;;2.05;;
27383;SDS011;14851;51.166;4.760;2023-02-28T13:38:58;2.72;;;1.83;;
27383;SDS011;14851;51.166;4.760;2023-02-28T13:44:05;3.50;;;2.00;;
27383;SDS011;14851;51.166;4.760;2023-02-28T13:46:35;3.30;;;2.20;;
27383;SDS011;14851;51.166;4.760;2023-02-28T13:49:25;4.32;;;1.83;;
27383;SDS011;14851;51.166;4.760;2023-02-28T14:03:10;3.45;;;2.00;;
27383;SDS011;14851;51.166;4.760;2023-02-28T14:08:38;4.10;;;2.28;;
27383;SDS011;14851;51.166;4.760;2023-02-28T14:11:27;4.32;;;2.20;;
27383;SDS011;14851;51.166;4.760;2023-02-28T14:14:04;7.22;;;2.97;;
27383;SDS011;14851;51.166;4.760;2023-02-28T14:16:44;4.63;;;2.35;;
27383;SDS011;14851;51.166;4.760;2023-02-28T14:19:13;5.28;;;2.42;;
27383;SDS011;14851;51.166;4.760;2023-02-28T14:21:48;3.17;;;2.05;;
27383;SDS011;14851;51.166;4.760;2023-02-28T14:38:39;3.95;;;2.22;;
27383;SDS011;14851;51.166;4.760;2023-02-28T14:41:12;2.42;;;1.80;;
27383;SDS011;14851;51.166;4.760;2023-02-28T14:43:49;3.70;;;2.10;;
27383;SDS011;14851;51.166;4.760;2023-02-28T14:46:17;5.20;;;2.35;;
27383;SDS011;14851;51.166;4.760;2023-02-28T14:48:46;3.53;;;2.20;;
27383;SDS011;14851;51.166;4.760;2023-02-28T14:51:18;4.18;;;2.10;;
27383;SDS011;14851;51.166;4.760;2023-02-28T14:53:59;2.83;;;2.30;;
27383;SDS011;14851;51.166;4.760;2023-02-28T14:56:28;3.28;;;2.05;;
27383;SDS011;14851;51.166;4.760;2023-02-28T14:59:00;4.32;;;2.13;;
27383;SDS011;14851;51.166;4.760;2023-02-28T15:01:26;2.92;;;2.25;;
27383;SDS011;14851;51.166;4.760;2023-02-28T15:04:00;4.25;;;2.00;;
27383;SDS011;14851;51.166;4.760;2023-02-28T15:06:32;11.00;;;2.38;;
27383;SDS011;14851;51.166;4.760;2023-02-28T15:09:06;3.97;;;2.47;;
27383;SDS011;14851;51.166;4.760;2023-02-28T15:11:47;2.85;;;2.10;;
27383;SDS011;14851;51.166;4.760;2023-02-28T15:14:19;6.72;;;2.30;;
27383;SDS011;14851;51.166;4.760;2023-02-28T15:16:56;4.07;;;2.20;;
27383;SDS011;14851;51.166;4.760;2023-02-28T15:19:30;4.93;;;2.08;;
27383;SDS011;14851;51.166;4.760;2023-02-28T15:22:01;4.05;;;2.28;;
27383;SDS011;14851;51.166;4.760;2023-02-28T15:24:31;3.05;;;2.00;;
27383;SDS011;14851;51.166;4.760;2023-02-28T15:27:06;5.43;;;2.22;;
27383;SDS011;14851;51.166;4.760;2023-02-28T15:29:47;5.00;;;2.30;;
27383;SDS011;14851;51.166;4.760;2023-02-28T15:34:54;4.53;;;2.25;;
27383;SDS011;14851;51.166;4.760;2023-02-28T15:37:28;4.53;;;2.25;;
27383;SDS011;14851;51.166;4.760;2023-02-28T15:40:15;2.92;;;2.47;;
27383;SDS011;14851;51.166;4.760;2023-02-28T15:43:07;6.15;;;2.38;;
27383;SDS011;14851;51.166;4.760;2023-02-28T15:45:50;3.67;;;2.30;;
27383;SDS011;14851;51.166;4.760;2023-02-28T15:48:58;2.45;;;1.88;;
27383;SDS011;14851;51.166;4.760;2023-02-28T15:51:36;6.35;;;2.58;;
27383;SDS011;14851;51.166;4.760;2023-02-28T15:54:07;3.60;;;2.25;;
27383;SDS011;14851;51.166;4.760;2023-02-28T15:56:47;5.28;;;2.10;;
27383;SDS011;14851;51.166;4.760;2023-02-28T15:59:25;4.88;;;2.35;;
27383;SDS011;14851;51.166;4.760;2023-02-28T16:04:35;3.55;;;2.25;;
27383;SDS011;14851;51.166;4.760;2023-02-28T16:07:03;3.05;;;2.10;;
27383;SDS011;14851;51.166;4.760;2023-02-28T16:09:30;6.13;;;2.53;;
27383;SDS011;14851;51.166;4.760;2023-02-28T16:12:00;4.90;;;2.40;;
27383;SDS011;14851;51.166;4.760;2023-02-28T16:14:28;4.45;;;2.72;;
27383;SDS011;14851;51.166;4.760;2023-02-28T16:16:56;5.00;;;2.70;;
27383;SDS011;14851;51.166;4.760;2023-02-28T16:19:31;5.57;;;2.47;;
27383;SDS011;14851;51.166;4.760;2023-02-28T16:21:57;6.05;;;2.63;;
27383;SDS011;14851;51.166;4.760;2023-02-28T16:24:23;5.07;;;2.40;;
27383;SDS011;14851;51.166;4.760;2023-02-28T16:26:52;4.40;;;2.70;;
27383;SDS011;14851;51.166;4.760;2023-02-28T16:29:25;5.00;;;2.65;;
27383;SDS011;14851;51.166;4.760;2023-02-28T16:31:56;3.75;;;2.17;;
27383;SDS011;14851;51.166;4.760;2023-02-28T16:34:22;3.72;;;2.58;;
27383;SDS011;14851;51.166;4.760;2023-02-28T16:36:49;3.45;;;2.30;;
27383;SDS011;14851;51.166;4.760;2023-02-28T16:39:16;4.65;;;2.80;;
27383;SDS011;14851;51.166;4.760;2023-02-28T16:41:43;4.47;;;2.50;;
27383;SDS011;14851;51.166;4.760;2023-02-28T16:44:13;5.80;;;2.30;;
27383;SDS011;14851;51.166;4.760;2023-02-28T16:47:01;4.50;;;2.50;;
27383;SDS011;14851;51.166;4.760;2023-02-28T16:49:28;4.13;;;2.20;;
27383;SDS011;14851;51.166;4.760;2023-02-28T16:51:54;13.38;;;2.95;;
27383;SDS011;14851;51.166;4.760;2023-02-28T16:54:20;4.65;;;2.40;;
27383;SDS011;14851;51.166;4.760;2023-02-28T16:56:47;5.43;;;2.50;;
27383;SDS011;14851;51.166;4.760;2023-02-28T16:59:17;5.25;;;3.20;;
27383;SDS011;14851;51.166;4.760;2023-02-28T17:01:46;4.28;;;2.75;;
27383;SDS011;14851;51.166;4.760;2023-02-28T17:04:12;4.25;;;2.90;;
27383;SDS011;14851;51.166;4.760;2023-02-28T17:06:39;3.50;;;2.28;;
27383;SDS011;14851;51.166;4.760;2023-02-28T17:09:08;4.35;;;2.72;;
27383;SDS011;14851;51.166;4.760;2023-02-28T17:11:52;3.35;;;2.28;;
27383;SDS011;14851;51.166;4.760;2023-02-28T17:14:18;4.55;;;2.22;;
27383;SDS011;14851;51.166;4.760;2023-02-28T17:16:44;5.32;;;2.17;;
27383;SDS011;14851;51.166;4.760;2023-02-28T17:19:13;3.67;;;2.10;;
27383;SDS011;14851;51.166;4.760;2023-02-28T17:21:41;3.95;;;2.10;;
27383;SDS011;14851;51.166;4.760;2023-02-28T17:24:07;4.13;;;2.00;;
27383;SDS011;14851;51.166;4.760;2023-02-28T17:26:37;4.45;;;2.55;;
27383;SDS011;14851;51.166;4.760;2023-02-28T17:29:05;4.22;;;2.40;;
27383;SDS011;14851;51.166;4.760;2023-02-28T17:31:38;3.75;;;2.17;;
27383;SDS011;14851;51.166;4.760;2023-02-28T17:34:04;8.68;;;2.53;;
27383;SDS011;14851;51.166;4.760;2023-02-28T17:36:30;3.30;;;2.30;;
27383;SDS011;14851;51.166;4.760;2023-02-28T17:38:58;4.80;;;2.22;;
27383;SDS011;14851;51.166;4.760;2023-02-28T17:41:24;5.38;;;2.60;;
27383;SDS011;14851;51.166;4.760;2023-02-28T17:43:52;4.72;;;2.72;;
27383;SDS011;14851;51.166;4.760;2023-02-28T17:46:21;3.08;;;2.17;;
27383;SDS011;14851;51.166;4.760;2023-02-28T17:48:49;4.72;;;2.58;;
27383;SDS011;14851;51.166;4.760;2023-02-28T17:51:18;3.60;;;2.40;;
27383;SDS011;14851;51.166;4.760;2023-02-28T17:53:49;4.20;;;2.38;;
27383;SDS011;14851;51.166;4.760;2023-02-28T17:56:24;8.02;;;3.20;;